In Rescue
 
Open Full Screen Window  High Contrast Mode
Wind Gusting 21 knots
16
April 19, 2021 7:33 PM CDT
Weather Information
Wind Direction
  330 °
Wind Speed
  16 kt (18 mph)
Wind Gust
  21 kt (24 mph)
Altimeter
30.09 in
Visibility
10 SM
Temperature
01° C
34° F
Dewpoint
-10° C
14° F
Humidity
44%
1hr Rain Fall
00.00 in.
24hr Rain Fall
00.00 in.
Sky Condition
Overcast @ 5,500 ft
VFR

METAR K3N8 200033Z AUTO 33016G21KT 10SM OVC055 01/M10 A3009 RMK AO2 T00081098

FAA Disclaimer: The data displayed is for advisory purposes only and is not to be used for flight planning or operations.